Latest Weather Observations for Trepell

IDQ60801

Issued at 11:32 pm EST Wednesday 27 May 2015 (issued every 30 minutes, with the page automatically refreshed every 10 minutes)

About weather observations | Map of weather stations | Latest weather observations for QLD | Other Formats
Station Details ID: 037036 Name: TREPELL AIRPORT Lat: -21.84 Lon: 140.89 Height: 266.2 m
Data from the previous 72 hours. | See also: Recent months at Trepell
Date/Time
EST
Temp
°C
App
Temp
°C
Dew
Point
Rel
Hum
%
Delta-T
°C
Wind Press
QNH
hPa
Press
MSL
hPa
Rain
since 9 am
mm
Dir
 
Spd
km/h
Gust
km/h
Spd
kts
Gust
kts
27/11:30pm 19.2 17.2 7.0 45 6.2 E 7 9 4 5 1018.7 1017.8 0.0
27/11:00pm 19.9 17.5 7.0 43 6.6 E 9 11 5 6 1018.9 1018.0 0.0
27/10:30pm 20.4 17.5 6.7 41 7.0 ESE 11 13 6 7 1018.9 1018.0 0.0
27/10:00pm 21.4 18.6 6.9 39 7.5 ESE 11 15 6 8 1019.0 1018.1 0.0
27/09:30pm 22.4 19.5 8.1 40 7.6 ESE 13 13 7 7 1019.0 1018.1 0.0
27/09:00pm 23.2 20.0 8.5 39 7.9 SE 15 17 8 9 1018.7 1017.8 0.0
27/08:30pm 23.1 20.6 8.0 38 8.1 SE 11 13 6 7 1018.4 1017.5 0.0
27/08:00pm 23.8 21.3 8.2 37 8.4 ESE 11 13 6 7 1018.1 1017.2 0.0
27/07:30pm 24.5 22.5 8.5 36 8.7 ESE 9 11 5 6 1017.6 1016.7 0.0
27/07:00pm 25.8 23.1 8.8 34 9.3 ESE 13 15 7 8 1017.1 1016.2 0.0
27/06:30pm 26.7 23.9 8.6 32 9.9 ESE 13 15 7 8 1016.8 1015.9 0.0
27/06:00pm 28.0 25.0 7.8 28 11.0 E 13 19 7 10 1016.5 1015.6 0.0
27/05:30pm 28.9 25.4 8.6 28 11.3 E 17 24 9 13 1016.3 1015.4 0.0
27/05:00pm 29.5 26.6 8.0 26 11.9 ENE 13 20 7 11 1016.6 1015.7 0.0
27/04:30pm 29.5 26.4 7.4 25 12.1 ESE 13 22 7 12 1016.5 1015.6 0.0
27/04:00pm 29.4 26.4 7.9 26 11.8 ENE 13 24 7 13 1016.5 1015.6 0.0
27/03:30pm 29.6 27.5 8.1 26 11.9 ESE 9 22 5 12 1016.6 1015.7 0.0
27/03:00pm 29.3 27.2 8.4 27 11.6 E 9 13 5 7 1017.0 1016.1 0.0
27/02:30pm 28.8 25.5 7.9 27 11.5 ESE 15 20 8 11 1017.1 1016.2 0.0
27/02:00pm 28.9 27.4 9.1 29 11.1 NE 7 17 4 9 1017.3 1016.4 0.0
27/01:30pm 28.5 25.5 9.2 30 10.8 E 15 22 8 12 1017.7 1016.8 0.0
27/01:00pm 28.2 24.5 9.5 31 10.5 E 19 26 10 14 1018.2 1017.3 0.0
27/12:30pm 27.8 23.9 9.6 32 10.2 ENE 20 26 11 14 1018.8 1017.9 0.0
27/12:00pm 27.6 23.4 9.9 33 10.0 ENE 22 32 12 17 1019.5 1018.7 0.0
27/11:30am 27.3 22.7 9.6 33 9.9 ENE 24 33 13 18 1020.2 1019.3 0.0
27/11:00am 26.4 21.1 9.7 35 9.3 ENE 28 35 15 19 1020.7 1019.8 0.0
27/10:30am 26.1 21.3 10.3 37 8.9 NE 26 32 14 17 1021.1 1020.2 0.0
27/10:00am 25.1 21.3 9.8 38 8.5 ENE 20 28 11 15 1021.4 1020.5 0.0
27/09:30am 22.0 18.5 8.9 43 7.1 ENE 17 20 9 11 1021.6 1020.7 0.0
27/09:00am 20.5 17.7 8.5 46 6.3 E 13 17 7 9 1021.7 1020.8 0.0
27/08:30am 18.7 17.5 8.1 50 5.5 SE 4 9 2 5 1021.8 1020.9 0.0
27/08:00am 17.3 16.7 7.6 53 4.9 CALM 0 0 0 0 1021.4 1020.5 0.0
27/07:30am 15.9 14.7 7.9 59 4.1 N 4 6 2 3 1020.9 1020.0 0.0
27/07:00am 14.1 13.1 5.5 56 4.1 CALM 0 0 0 0 1020.7 1019.8 0.0
27/06:30am 14.3 13.4 6.2 58 3.9 CALM 0 0 0 0 1020.3 1019.4 0.0
27/06:00am 14.1 11.8 5.7 57 4.0 S 7 7 4 4 1020.1 1019.2 0.0
27/05:30am 14.5 13.7 6.3 58 4.0 CALM 0 0 0 0 1019.7 1018.9 0.0
27/05:00am 14.9 14.1 6.5 57 4.1 CALM 0 0 0 0 1019.5 1018.7 0.0
27/04:30am 15.5 14.8 6.8 56 4.3 CALM 0 0 0 0 1019.5 1018.7 0.0
27/04:00am 16.4 16.0 8.1 58 4.2 CALM 0 0 0 0 1019.6 1018.8 0.0
27/03:30am 15.5 14.8 7.0 57 4.2 CALM 0 0 0 0 1019.6 1018.8 0.0
27/03:00am 16.8 16.2 7.4 54 4.8 CALM 0 0 0 0 1019.3 1018.4 0.0
27/02:30am 17.3 15.7 7.9 54 4.8 ENE 6 6 3 3 1019.4 1018.5 0.0
27/02:00am 17.0 15.7 7.6 54 4.8 NE 4 6 2 3 1019.7 1018.9 0.0
27/01:30am 17.8 16.0 7.8 52 5.1 E 7 9 4 5 1020.2 1019.3 0.0
27/01:00am 18.1 16.3 8.1 52 5.2 E 7 9 4 5 1020.3 1019.4 0.0
27/12:30am 18.4 16.6 8.1 51 5.4 ESE 7 9 4 5 1020.4 1019.5 0.0
27/12:00am 18.7 16.6 8.1 50 5.5 ESE 9 11 5 6 1020.6 1019.7 0.0
 
Date/Time
EST
Temp
°C
App
Temp
°C
Dew
Point
Rel
Hum
%
Delta-T
°C
Wind Press
QNH
hPa
Press
MSL
hPa
Rain
since 9 am
mm
Dir
 
Spd
km/h
Gust
km/h
Spd
kts
Gust
kts
26/11:30pm 19.5 16.9 7.9 47 6.0 ESE 11 15 6 8 1020.8 1019.9 0.0
26/11:00pm 20.6 18.0 9.5 49 6.0 SE 13 13 7 7 1021.1 1020.2 0.0
26/10:30pm 20.8 18.5 9.1 47 6.3 ESE 11 13 6 7 1020.9 1020.0 0.0
26/10:00pm 21.6 18.7 9.5 46 6.6 ESE 15 19 8 10 1020.7 1019.8 0.0
26/09:30pm 22.2 18.9 9.7 45 6.8 SE 17 19 9 10 1020.9 1020.0 0.0
26/09:00pm 22.9 19.2 9.3 42 7.4 SE 19 22 10 12 1020.7 1019.8 0.0
26/08:30pm 23.2 19.9 9.6 42 7.5 SE 17 19 9 10 1020.5 1019.6 0.0
26/08:00pm 23.7 20.3 9.3 40 7.9 SE 17 19 9 10 1020.3 1019.4 0.0
26/07:30pm 24.4 21.0 9.2 38 8.3 SE 17 20 9 11 1020.0 1019.1 0.0
26/07:00pm 25.2 21.9 9.5 37 8.7 SE 17 20 9 11 1019.6 1018.8 0.0
26/06:30pm 25.8 22.8 9.2 35 9.2 ESE 15 19 8 10 1019.2 1018.3 0.0
26/06:00pm 26.9 23.3 8.4 31 10.1 ESE 17 19 9 10 1018.8 1017.9 0.0
26/05:30pm 27.8 24.6 8.6 30 10.6 ESE 15 19 8 10 1018.6 1017.7 0.0
26/05:00pm 28.3 25.1 8.6 29 10.9 SE 15 20 8 11 1018.5 1017.6 0.0
26/04:30pm 28.5 26.9 8.2 28 11.2 ESE 6 13 3 7 1018.7 1017.8 0.0
26/04:00pm 28.5 25.6 8.2 28 11.2 SE 13 20 7 11 1018.5 1017.6 0.0
26/03:30pm 28.1 26.2 8.9 30 10.7 NE 9 15 5 8 1018.8 1017.9 0.0
26/03:00pm 28.3 25.1 8.6 29 10.9 ESE 15 24 8 13 1018.8 1017.9 0.0
26/02:30pm 29.1 26.7 8.7 28 11.4 NE 11 24 6 13 1018.9 1018.0 0.0
26/02:00pm 28.1 25.0 8.9 30 10.7 NE 15 22 8 12 1019.3 1018.4 0.0
26/01:30pm 28.4 25.5 9.6 31 10.6 NE 15 20 8 11 1019.9 1019.0 0.0
26/01:00pm 27.9 24.3 9.7 32 10.2 ENE 19 28 10 15 1020.6 1019.7 0.0
26/12:30pm 27.2 23.6 10.0 34 9.7 NE 19 32 10 17 1021.3 1020.4 0.0
26/12:00pm 27.6 23.8 11.2 36 9.4 NNE 22 32 12 17 1021.6 1020.7 0.0
26/11:30am 26.5 22.2 10.6 37 9.0 NNE 24 32 13 17 1022.3 1021.4 0.0
26/11:00am 26.0 21.8 11.0 39 8.5 NE 24 32 13 17 1022.8 1022.0 0.0
26/10:30am 25.0 20.6 11.6 43 7.7 NE 26 33 14 18 1023.0 1022.2 0.0
26/10:00am 24.1 20.2 12.1 47 6.9 NE 24 30 13 16 1023.1 1022.3 0.0
26/09:30am 22.8 19.7 11.5 49 6.4 NE 19 24 10 13 1023.3 1022.5 0.0
26/09:00am 21.4 18.1 10.9 51 5.8 ENE 19 24 10 13 1023.3 1022.5 0.0
26/08:30am 19.6 17.2 10.0 54 5.2 ENE 13 17 7 9 1023.4 1022.6 0.0
26/08:00am 17.8 16.3 9.2 57 4.5 NNE 7 9 4 5 1023.2 1022.4 0.0
26/07:30am 15.8 13.8 8.5 62 3.8 NE 9 11 5 6 1022.9 1022.1 0.0
26/07:00am 15.8 13.3 8.3 61 3.8 ENE 11 13 6 7 1022.6 1021.7 0.0
26/06:30am 15.9 14.5 8.9 63 3.6 ESE 6 9 3 5 1022.6 1021.7 0.0
26/06:00am 16.7 15.1 8.9 60 4.1 E 7 9 4 5 1022.3 1021.4 0.0
26/05:30am 17.1 14.7 8.5 57 4.5 E 11 13 6 7 1022.0 1021.1 0.0
26/05:00am 17.5 15.2 8.9 57 4.5 ENE 11 13 6 7 1021.7 1020.8 0.0
26/04:30am 18.4 17.1 9.2 55 4.9 NE 6 7 3 4 1021.7 1020.8 0.0
26/04:00am 17.3 15.9 8.7 57 4.5 NW 6 9 3 5 1021.6 1020.7 0.0
26/03:30am 18.2 15.9 9.0 55 4.9 ENE 11 15 6 8 1021.7 1020.8 0.0
26/03:00am 17.9 16.1 9.3 57 4.5 NE 9 13 5 7 1021.7 1020.8 0.0
26/02:30am 18.5 17.2 9.8 57 4.7 NNE 7 9 4 5 1021.7 1020.8 0.0
26/02:00am 18.4 17.1 9.2 55 4.9 NNE 6 7 3 4 1022.0 1021.1 0.0
26/01:30am 19.2 17.1 9.9 55 5.0 E 11 13 6 7 1022.2 1021.3 0.0
26/01:00am 19.4 16.6 9.9 54 5.1 E 15 17 8 9 1022.2 1021.3 0.0
26/12:30am 19.6 17.1 9.8 53 5.3 E 13 19 7 10 1022.2 1021.3 0.0
26/12:00am 20.0 17.6 10.1 53 5.4 ESE 13 17 7 9 1022.3 1021.4 0.0
 
Date/Time
EST
Temp
°C
App
Temp
°C
Dew
Point
Rel
Hum
%
Delta-T
°C
Wind Press
QNH
hPa
Press
MSL
hPa
Rain
since 9 am
mm
Dir
 
Spd
km/h
Gust
km/h
Spd
kts
Gust
kts
25/11:30pm 20.3 17.9 10.1 52 5.6 ESE 13 17 7 9 1022.3 1021.4 0.0
25/11:00pm 20.4 18.3 9.9 51 5.7 ESE 11 15 6 8 1022.4 1021.5 0.0
25/10:30pm 21.1 18.2 9.7 48 6.2 ESE 15 19 8 10 1022.4 1021.5 0.0
25/10:00pm 21.5 19.1 10.0 48 6.3 ESE 13 15 7 8 1022.3 1021.4 0.0
25/09:30pm 22.1 19.3 9.9 46 6.7 SE 15 17 8 9 1022.3 1021.4 0.0
25/09:00pm 22.5 20.1 10.0 45 6.9 ESE 13 15 7 8 1022.2 1021.3 0.0
25/08:30pm 23.1 20.8 10.5 45 7.0 SE 13 17 7 9 1021.9 1021.0 0.0
25/08:00pm 23.2 20.7 9.6 42 7.4 ESE 13 15 7 8 1021.5 1020.6 0.0
25/07:30pm 23.5 20.8 9.1 40 7.8 ESE 13 15 7 8 1021.2 1020.3 0.0
25/07:00pm 24.5 21.9 9.3 38 8.3 ESE 13 17 7 9 1020.8 1019.9 0.0
25/06:30pm 25.7 23.5 9.5 36 9.0 ESE 11 13 6 7 1020.6 1019.7 0.0
25/06:00pm 26.7 24.3 10.0 35 9.4 SE 13 15 7 8 1020.4 1019.5 0.0
25/05:30pm 27.5 24.6 9.8 33 10.0 ESE 15 19 8 10 1020.0 1019.1 0.0
25/05:00pm 28.1 25.5 9.4 31 10.5 E 13 20 7 11 1019.7 1018.9 0.0
25/04:30pm 28.4 25.6 10.1 32 10.4 ESE 15 20 8 11 1019.3 1018.4 0.0
25/04:00pm 28.6 25.6 10.8 33 10.2 ESE 17 22 9 12 1019.1 1018.2 0.0
25/03:30pm 28.9 25.4 10.1 31 10.7 E 19 26 10 14 1019.3 1018.4 0.0
25/03:00pm 28.6 26.5 11.2 34 10.1 NE 13 24 7 13 1019.4 1018.5 0.0
25/02:30pm 28.0 25.9 11.1 35 9.7 NE 13 22 7 12 1019.6 1018.8 0.0
25/02:00pm 27.3 24.7 12.1 39 8.9 ENE 17 26 9 14 1020.0 1019.1 0.0
25/01:30pm 27.6 24.6 12.4 39 8.9 ENE 20 32 11 17 1020.4 1019.5 0.0
25/01:00pm 26.7 23.4 12.7 42 8.2 NE 22 32 12 17 1020.9 1020.0 0.0
25/12:30pm 27.0 23.6 13.7 44 8.0 NE 24 32 13 17 1021.5 1020.6 0.0
25/12:00pm 25.4 22.0 13.6 48 7.0 NE 24 32 13 17 1021.9 1021.0 0.0
25/11:30am 24.8 21.0 13.7 50 6.6 NE 26 33 14 18 1022.3 1021.4 0.0
25/11:00am 24.3 20.6 13.8 52 6.2 NE 26 33 14 18 1022.6 1021.7 0.0
25/10:30am 24.3 20.3 14.1 53 6.1 ENE 28 35 15 19 1023.1 1022.3 0.0
25/10:00am 22.9 18.4 13.7 56 5.4 NE 30 39 16 21 1023.0 1022.2 0.0
25/09:30am 22.5 18.0 13.8 58 5.1 NE 30 41 16 22 1023.0 1022.2 0.0
25/09:00am 20.6 16.4 13.6 64 4.1 ENE 28 39 15 21 1022.9 1022.1 0.0
25/08:30am 20.2 16.9 13.9 67 3.7 ENE 24 33 13 18 1022.6 1021.7 0.0
25/08:00am 18.7 16.2 13.6 72 2.9 ENE 19 24 10 13 1022.3 1021.4 0.0
25/07:30am 15.7 13.6 11.1 74 2.5 NE 13 17 7 9 1022.1 1021.2 0.0
25/07:00am 14.1 13.0 10.7 80 1.8 E 7 9 4 5 1022.1 1021.2 0.0
25/06:30am 13.4 11.4 7.0 65 3.1 E 7 7 4 4 1021.9 1021.0 0.0
25/06:00am 14.0 13.5 8.0 67 3.0 CALM 0 0 0 0 1021.7 1020.8 0.0
25/05:30am 14.4 12.8 8.8 69 2.9 ENE 7 9 4 5 1021.1 1020.2 0.0
25/05:00am 14.9 13.5 9.5 70 2.8 ENE 7 9 4 5 1021.1 1020.2 0.0
25/04:30am 14.5 13.8 6.8 60 3.8 CALM 0 0 0 0 1021.0 1020.1 0.0
25/04:00am 15.0 12.7 7.5 61 3.8 NE 9 11 5 6 1020.8 1019.9 0.0
25/03:30am 15.6 13.7 7.6 59 4.0 NE 7 7 4 4 1020.8 1019.9 0.0
25/03:00am 16.5 15.9 7.2 54 4.7 CALM 0 0 0 0 1021.0 1020.1 0.0
25/02:30am 15.5 14.4 5.1 50 5.0 CALM 0 0 0 0 1021.2 1020.3 0.0
25/02:00am 15.6 14.5 5.2 50 5.0 CALM 0 0 0 0 1021.3 1020.4 0.0
25/01:30am 16.1 15.1 5.4 49 5.2 CALM 0 0 0 0 1021.0 1020.1 0.0
25/01:00am 16.6 15.5 4.9 46 5.6 CALM 0 4 0 2 1021.3 1020.4 0.0
25/12:30am 16.7 13.8 4.7 45 5.8 E 9 11 5 6 1021.5 1020.6 0.0
25/12:00am 18.2 15.1 5.4 43 6.3 ESE 11 15 6 8 1021.5 1020.6 0.0

Other Formats:

Comma delimited format used in spreadsheet applications
http://www.bom.gov.au/fwo/IDQ60801/IDQ60801.94338.axf

JavaScript Object Notation format (JSON) in row-major order
http://www.bom.gov.au/fwo/IDQ60801/IDQ60801.94338.json